• Join FlightAware (Why Join?)
  • Login
  • US Flag 
03:54AM EST


 

Airport Tracker/Info


-or-


 

Live Flight TrackerFlight Track Log ✈ CPT8773 ✈ 01-May-2013 ✈ KCPR - KCOD

Flight Track Log - Related Links

Times and Time Zones

All times are in EDT time to prevent confusion due to time zone crossing. See the CPT8773 flight status page for this flight to view local times or setup timezone preferences in your user account.

Time Position Orientation Groundspeed Altitude Reporting Facility
EDT Latitude Longitude Course Direction KTS MPH feet Rate Location/Type
09:45AM 42.9858 -106.4764 307° West 116 133 7,800  Level Denver Center
09:46AM 43.0206 -106.4928 341° North 118 136 8,800 780 Climbing Denver Center
09:47AM 43.0511 -106.5042 345° North 118 136 9,500 660 Climbing Denver Center
09:48AM 43.0819 -106.5175 342° North 120 138 10,200 720 Climbing Denver Center
09:49AM 43.1730 -106.4447 307° West  Level FlightAware Approximate
09:49AM 43.1183 -106.5350 341° North 122 140 11,000  Level Denver Center
09:50AM 43.1988 -106.4915 307° West  Level FlightAware Approximate
09:50AM 43.1483 -106.5508 339° North 123 142 11,600  Level Denver Center
09:51AM 43.1833 -106.5661 342° North 135 155 12,000 180 Climbing Denver Center
09:52AM 43.2311 -106.5797 348° North 152 175 12,000  Level Denver Center
09:53AM 43.2706 -106.6089 332° Northwest 172 198 12,000  Level Denver Center
09:54AM 43.2983 -106.6728 301° West 174 200 12,000  Level Denver Center
09:55AM 43.3244 -106.7228 306° West 170 196 12,000  Level Denver Center
09:56AM 43.3522 -106.7722 308° West 172 198 12,000  Level Denver Center
09:57AM 43.3817 -106.8322 304° West 170 196 12,000  Level Denver Center
09:58AM 43.4103 -106.8869 306° West 172 198 12,000  Level Denver Center
09:59AM 43.4375 -106.9369 307° West 171 197 12,000  Level Denver Center
10:00AM 43.4642 -106.9883 306° West 173 199 12,000  Level Denver Center
10:01AM 43.4956 -107.0481 306° West 173 199 12,000  Level Denver Center
10:02AM 43.5231 -107.0989 307° West 173 199 12,000  Level Denver Center
10:03AM 43.5531 -107.1603 304° West 171 197 12,100  Climbing Salt Lake Center
10:05AM 43.6061 -107.2581 307° West 168 193 12,000  Descending Denver Center
10:06AM 43.6378 -107.3142 308° West 167 192 12,100  Climbing Denver Center
10:07AM 43.6658 -107.3728 304° West 165 190 12,100  Level Salt Lake Center
10:08AM 43.6900 -107.4222 304° West 163 188 12,100  Level Salt Lake Center
10:09AM 43.7150 -107.4706 306° West 163 188 12,100  Level Salt Lake Center
10:10AM 43.7444 -107.5267 306° West 162 186 12,100  Level Salt Lake Center
10:11AM 43.7686 -107.5756 304° West 161 185 12,100  Level Salt Lake Center
10:12AM 43.7975 -107.6333 305° West 162 186 12,100  Level Salt Lake Center
10:13AM 43.8233 -107.6803 307° West 161 185 12,100  Level Salt Lake Center
10:14AM 43.8478 -107.7286 305° West 161 185 12,100  Level Salt Lake Center
10:15AM 43.8764 -107.7856 305° West 161 185 12,100  Level Salt Lake Center
10:16AM 43.9014 -107.8353 305° West 162 186 12,100 -60 Level Salt Lake Center
10:18AM 43.9258 -107.8819 306° West 160 184 12,000 -60 Descending Salt Lake Center
10:19AM 43.9550 -107.9394 305° West 160 184 12,000  Level Salt Lake Center
10:20AM 43.9825 -107.9858 309° West 162 186 12,100  Climbing Salt Lake Center
10:21AM 44.0167 -108.0361 313° West 161 185 12,100  Level Salt Lake Center
10:22AM 44.0461 -108.0797 313° West 161 185 12,100  Level Salt Lake Center
10:23AM 44.0769 -108.1217 316° Northwest 162 186 12,100 -60 Level Salt Lake Center
10:24AM 44.1164 -108.1642 322° Northwest 161 185 12,000 -60 Descending Salt Lake Center
10:25AM 44.1528 -108.2011 324° Northwest 164 189 12,000  Level Salt Lake Center
10:26AM 44.1931 -108.2464 321° Northwest 166 191 12,000  Level Salt Lake Center
10:27AM 44.2283 -108.2856 322° Northwest 168 193 12,000  Level Salt Lake Center
10:28AM 44.2633 -108.3244 321° Northwest 168 193 12,000  Level Salt Lake Center
10:29AM 44.3044 -108.3700 322° Northwest 168 193 12,000  Level Salt Lake Center
10:30AM 44.3389 -108.4097 320° Northwest 168 193 12,000  Level Salt Lake Center
10:31AM 44.3742 -108.4475 323° Northwest 167 192 12,000  Level Salt Lake Center
10:32AM 44.4139 -108.4919 321° Northwest 165 190 12,000  Level Salt Lake Center
10:33AM 44.4475 -108.5297 321° Northwest 164 189 12,000  Level Salt Lake Center
10:34AM 44.4875 -108.5739 322° Northwest 163 188 12,000  Level Salt Lake Center
10:35AM 44.5225 -108.6111 323° Northwest 164 189 12,000 -480 Level Salt Lake Center
10:36AM 44.5578 -108.6506 321° Northwest 166 191 11,100 -1,020 Descending Salt Lake Center
10:37AM 44.5986 -108.6958 322° Northwest 167 192 10,000 -1,080 Descending Salt Lake Center
10:38AM 44.6344 -108.7317 325° Northwest 166 191 8,900 -1,080 Descending Salt Lake Center
10:39AM 44.6469 -108.7822 289° West 158 182 7,900 -720 Descending Salt Lake Center
10:40AM 44.6286 -108.8328 243° Southwest 155 178 7,500 -240 Descending Salt Lake Center
10:41AM 44.6022 -108.8794 232° Southwest 155 178 7,500 -360 Level Salt Lake Center
10:42AM 44.5739 -108.9308 232° Southwest 152 175 6,800 -720 Descending Salt Lake Center